sensor_id;sensor_type;location;lat;lon;timestamp;pressure;altitude;pressure_sealevel;temperature;humidity
14232;BME280;7200;52.194;9.900;2023-01-29T00:00:29;101332.41;;;0.03;100.00
14232;BME280;7200;52.194;9.900;2023-01-29T00:02:54;101326.31;;;0.01;100.00
14232;BME280;7200;52.194;9.900;2023-01-29T00:05:20;101320.19;;;-0.03;100.00
14232;BME280;7200;52.194;9.900;2023-01-29T00:07:45;101315.03;;;-0.01;100.00
14232;BME280;7200;52.194;9.900;2023-01-29T00:10:10;101312.44;;;-0.01;100.00
14232;BME280;7200;52.194;9.900;2023-01-29T00:12:36;101294.31;;;0.01;100.00
14232;BME280;7200;52.194;9.900;2023-01-29T00:15:01;101287.41;;;0.01;100.00
14232;BME280;7200;52.194;9.900;2023-01-29T00:17:26;101307.47;;;0.10;100.00
14232;BME280;7200;52.194;9.900;2023-01-29T00:19:52;101300.50;;;0.07;100.00
14232;BME280;7200;52.194;9.900;2023-01-29T00:22:17;101307.59;;;0.16;100.00
14232;BME280;7200;52.194;9.900;2023-01-29T00:24:43;101311.13;;;0.19;100.00
14232;BME280;7200;52.194;9.900;2023-01-29T00:27:08;101311.22;;;0.24;100.00
14232;BME280;7200;52.194;9.900;2023-01-29T00:29:33;101312.16;;;0.28;100.00
14232;BME280;7200;52.194;9.900;2023-01-29T00:31:59;101308.69;;;0.27;100.00
14232;BME280;7200;52.194;9.900;2023-01-29T00:34:24;101306.94;;;0.26;100.00
14232;BME280;7200;52.194;9.900;2023-01-29T00:36:49;101307.88;;;0.30;100.00
14232;BME280;7200;52.194;9.900;2023-01-29T00:39:15;101297.41;;;0.25;100.00
14232;BME280;7200;52.194;9.900;2023-01-29T00:41:40;101301.81;;;0.29;100.00
14232;BME280;7200;52.194;9.900;2023-01-29T00:44:41;101306.13;;;0.29;100.00
14232;BME280;7200;52.194;9.900;2023-01-29T00:47:21;101289.56;;;0.22;100.00
14232;BME280;7200;52.194;9.900;2023-01-29T00:49:58;101284.31;;;0.19;100.00
14232;BME280;7200;52.194;9.900;2023-01-29T00:52:23;101279.88;;;0.15;100.00
14232;BME280;7200;52.194;9.900;2023-01-29T00:54:50;101254.63;;;0.05;100.00
14232;BME280;7200;52.194;9.900;2023-01-29T00:57:15;101283.34;;;0.14;100.00
14232;BME280;7200;52.194;9.900;2023-01-29T00:59:40;101296.44;;;0.20;100.00
14232;BME280;7200;52.194;9.900;2023-01-29T01:02:06;101292.97;;;0.19;100.00
14232;BME280;7200;52.194;9.900;2023-01-29T01:04:50;101305.16;;;0.24;100.00
14232;BME280;7200;52.194;9.900;2023-01-29T01:07:15;101280.72;;;0.12;100.00
14232;BME280;7200;52.194;9.900;2023-01-29T01:09:40;101299.00;;;0.18;100.00
14232;BME280;7200;52.194;9.900;2023-01-29T01:12:24;101293.75;;;0.17;100.00
14232;BME280;7200;52.194;9.900;2023-01-29T01:14:50;101285.75;;;0.05;100.00
14232;BME280;7200;52.194;9.900;2023-01-29T01:17:15;101296.13;;;0.05;100.00
14232;BME280;7200;52.194;9.900;2023-01-29T01:19:41;101276.94;;;-0.04;100.00
14232;BME280;7200;52.194;9.900;2023-01-29T01:22:06;101302.97;;;0.01;100.00
14232;BME280;7200;52.194;9.900;2023-01-29T01:24:31;101286.34;;;-0.09;100.00
14232;BME280;7200;52.194;9.900;2023-01-29T01:26:56;101272.16;;;-0.25;100.00
14232;BME280;7200;52.194;9.900;2023-01-29T01:29:22;101263.53;;;-0.25;100.00
14232;BME280;7200;52.194;9.900;2023-01-29T01:31:48;101281.66;;;-0.25;100.00
14232;BME280;7200;52.194;9.900;2023-01-29T01:34:14;101275.50;;;-0.30;100.00
14232;BME280;7200;52.194;9.900;2023-01-29T01:36:39;101274.66;;;-0.29;100.00
14232;BME280;7200;52.194;9.900;2023-01-29T01:39:05;101268.59;;;-0.31;100.00
14232;BME280;7200;52.194;9.900;2023-01-29T01:41:30;101259.03;;;-0.32;100.00
14232;BME280;7200;52.194;9.900;2023-01-29T01:43:57;101267.91;;;-0.23;100.00
14232;BME280;7200;52.194;9.900;2023-01-29T01:46:25;101274.94;;;-0.15;100.00
14232;BME280;7200;52.194;9.900;2023-01-29T01:51:28;101249.81;;;-0.20;100.00
14232;BME280;7200;52.194;9.900;2023-01-29T01:53:58;101255.06;;;-0.16;100.00
14232;BME280;7200;52.194;9.900;2023-01-29T01:56:30;101258.50;;;-0.17;100.00
14232;BME280;7200;52.194;9.900;2023-01-29T01:59:04;101238.34;;;-0.31;100.00
14232;BME280;7200;52.194;9.900;2023-01-29T02:01:31;101240.97;;;-0.29;100.00
14232;BME280;7200;52.194;9.900;2023-01-29T02:04:08;101234.00;;;-0.32;100.00
14232;BME280;7200;52.194;9.900;2023-01-29T02:06:54;101233.09;;;-0.34;100.00
14232;BME280;7200;52.194;9.900;2023-01-29T02:09:49;101227.81;;;-0.38;100.00
14232;BME280;7200;52.194;9.900;2023-01-29T02:12:17;101239.91;;;-0.39;100.00
14232;BME280;7200;52.194;9.900;2023-01-29T02:14:43;101236.31;;;-0.44;100.00
14232;BME280;7200;52.194;9.900;2023-01-29T02:17:11;101251.00;;;-0.45;100.00
14232;BME280;7200;52.194;9.900;2023-01-29T02:31:06;101262.28;;;-0.43;100.00
14232;BME280;7200;52.194;9.900;2023-01-29T02:39:16;101276.94;;;-0.45;100.00
14232;BME280;7200;52.194;9.900;2023-01-29T02:41:52;101278.78;;;-0.39;100.00
14232;BME280;7200;52.194;9.900;2023-01-29T02:44:27;101284.91;;;-0.35;100.00
14232;BME280;7200;52.194;9.900;2023-01-29T02:46:59;101287.47;;;-0.37;100.00
14232;BME280;7200;52.194;9.900;2023-01-29T02:49:32;101289.28;;;-0.33;100.00
14232;BME280;7200;52.194;9.900;2023-01-29T02:52:14;101296.31;;;-0.27;100.00
14232;BME280;7200;52.194;9.900;2023-01-29T02:57:25;101300.63;;;-0.28;100.00
14232;BME280;7200;52.194;9.900;2023-01-29T02:59:59;101292.88;;;-0.28;100.00
14232;BME280;7200;52.194;9.900;2023-01-29T03:02:37;101277.97;;;-0.36;100.00
14232;BME280;7200;52.194;9.900;2023-01-29T03:05:10;101288.50;;;-0.29;100.00
14232;BME280;7200;52.194;9.900;2023-01-29T03:07:44;101299.78;;;-0.28;100.00
14232;BME280;7200;52.194;9.900;2023-01-29T03:10:16;101283.28;;;-0.32;100.00
14232;BME280;7200;52.194;9.900;2023-01-29T03:12:46;101279.78;;;-0.32;100.00
14232;BME280;7200;52.194;9.900;2023-01-29T03:15:17;101271.84;;;-0.40;100.00
14232;BME280;7200;52.194;9.900;2023-01-29T03:18:08;101281.63;;;-0.28;100.00
14232;BME280;7200;52.194;9.900;2023-01-29T03:20:40;101276.28;;;-0.34;100.00
14232;BME280;7200;52.194;9.900;2023-01-29T03:23:16;101284.09;;;-0.33;100.00
14232;BME280;7200;52.194;9.900;2023-01-29T03:25:56;101276.38;;;-0.31;100.00
14232;BME280;7200;52.194;9.900;2023-01-29T03:28:43;101273.75;;;-0.31;100.00
14232;BME280;7200;52.194;9.900;2023-01-29T03:31:28;101268.63;;;-0.30;100.00
14232;BME280;7200;52.194;9.900;2023-01-29T03:34:20;101259.97;;;-0.29;100.00
14232;BME280;7200;52.194;9.900;2023-01-29T03:37:03;101274.75;;;-0.26;100.00
14232;BME280;7200;52.194;9.900;2023-01-29T03:39:32;101292.16;;;-0.21;100.00
14232;BME280;7200;52.194;9.900;2023-01-29T03:42:23;101287.88;;;-0.18;100.00
14232;BME280;7200;52.194;9.900;2023-01-29T03:45:10;101284.41;;;-0.17;100.00
14232;BME280;7200;52.194;9.900;2023-01-29T03:47:47;101276.69;;;-0.16;100.00
14232;BME280;7200;52.194;9.900;2023-01-29T03:50:24;101279.31;;;-0.14;100.00
14232;BME280;7200;52.194;9.900;2023-01-29T03:58:58;101256.84;;;-0.14;100.00
14232;BME280;7200;52.194;9.900;2023-01-29T04:01:29;101241.13;;;-0.22;100.00
14232;BME280;7200;52.194;9.900;2023-01-29T04:04:03;101246.44;;;-0.15;100.00
14232;BME280;7200;52.194;9.900;2023-01-29T04:06:32;101248.25;;;-0.11;100.00
14232;BME280;7200;52.194;9.900;2023-01-29T04:09:06;101245.69;;;-0.10;100.00
14232;BME280;7200;52.194;9.900;2023-01-29T04:11:37;101243.97;;;-0.08;100.00
14232;BME280;7200;52.194;9.900;2023-01-29T04:14:06;101238.78;;;-0.08;100.00
14232;BME280;7200;52.194;9.900;2023-01-29T04:16:35;101231.00;;;-0.08;100.00
14232;BME280;7200;52.194;9.900;2023-01-29T04:19:01;101216.19;;;-0.13;100.00
14232;BME280;7200;52.194;9.900;2023-01-29T04:21:27;101203.22;;;-0.15;100.00
14232;BME280;7200;52.194;9.900;2023-01-29T04:23:55;101203.25;;;-0.13;100.00
14232;BME280;7200;52.194;9.900;2023-01-29T04:29:19;101200.81;;;-0.04;100.00
14232;BME280;7200;52.194;9.900;2023-01-29T04:34:33;101210.59;;;0.08;100.00
14232;BME280;7200;52.194;9.900;2023-01-29T04:37:16;101188.94;;;0.07;100.00
14232;BME280;7200;52.194;9.900;2023-01-29T04:39:55;101167.22;;;0.01;100.00
14232;BME280;7200;52.194;9.900;2023-01-29T04:42:34;101163.75;;;0.02;100.00
14232;BME280;7200;52.194;9.900;2023-01-29T04:47:47;101146.47;;;0.01;100.00
14232;BME280;7200;52.194;9.900;2023-01-29T04:50:28;101128.16;;;-0.07;100.00
14232;BME280;7200;52.194;9.900;2023-01-29T04:55:42;101146.59;;;0.08;100.00
14232;BME280;7200;52.194;9.900;2023-01-29T04:58:27;101114.34;;;-0.05;100.00
14232;BME280;7200;52.194;9.900;2023-01-29T05:00:55;101132.69;;;0.05;100.00
14232;BME280;7200;52.194;9.900;2023-01-29T05:03:24;101115.22;;;-0.06;100.00
14232;BME280;7200;52.194;9.900;2023-01-29T05:05:52;101132.56;;;-0.03;100.00
14232;BME280;7200;52.194;9.900;2023-01-29T05:08:20;101135.19;;;-0.02;100.00
14232;BME280;7200;52.194;9.900;2023-01-29T05:10:48;101146.56;;;0.07;100.00
14232;BME280;7200;52.194;9.900;2023-01-29T05:13:14;101129.19;;;0.03;100.00
14232;BME280;7200;52.194;9.900;2023-01-29T05:15:54;101129.22;;;0.04;100.00
14232;BME280;7200;52.194;9.900;2023-01-29T05:18:21;101119.69;;;0.03;100.00
14232;BME280;7200;52.194;9.900;2023-01-29T05:20:48;101122.31;;;0.05;100.00
14232;BME280;7200;52.194;9.900;2023-01-29T05:23:18;101135.34;;;0.08;100.00
14232;BME280;7200;52.194;9.900;2023-01-29T05:25:45;101127.50;;;0.05;100.00
14232;BME280;7200;52.194;9.900;2023-01-29T05:28:11;101136.25;;;0.10;100.00
14232;BME280;7200;52.194;9.900;2023-01-29T05:30:44;101131.06;;;0.10;100.00
14232;BME280;7200;52.194;9.900;2023-01-29T05:33:12;101139.72;;;0.10;100.00
14232;BME280;7200;52.194;9.900;2023-01-29T05:35:39;101129.28;;;0.09;100.00
14232;BME280;7200;52.194;9.900;2023-01-29T05:38:04;101135.41;;;0.12;100.00
14232;BME280;7200;52.194;9.900;2023-01-29T05:40:30;101127.66;;;0.14;100.00
14232;BME280;7200;52.194;9.900;2023-01-29T05:42:55;101118.84;;;0.06;100.00
14232;BME280;7200;52.194;9.900;2023-01-29T05:45:20;101125.81;;;0.07;100.00
14232;BME280;7200;52.194;9.900;2023-01-29T05:47:46;101131.81;;;0.06;100.00
14232;BME280;7200;52.194;9.900;2023-01-29T05:50:12;101140.59;;;0.12;100.00
14232;BME280;7200;52.194;9.900;2023-01-29T05:52:38;101138.75;;;0.05;100.00
14232;BME280;7200;52.194;9.900;2023-01-29T05:55:04;101131.81;;;0.06;100.00
14232;BME280;7200;52.194;9.900;2023-01-29T05:57:29;101130.16;;;0.08;100.00
14232;BME280;7200;52.194;9.900;2023-01-29T05:59:55;101137.94;;;0.09;100.00
14232;BME280;7200;52.194;9.900;2023-01-29T06:02:20;101135.28;;;0.05;100.00
14232;BME280;7200;52.194;9.900;2023-01-29T06:04:45;101143.13;;;0.08;100.00
14232;BME280;7200;52.194;9.900;2023-01-29T06:07:11;101148.34;;;0.11;100.00
14232;BME280;7200;52.194;9.900;2023-01-29T06:09:36;101148.22;;;0.03;100.00
14232;BME280;7200;52.194;9.900;2023-01-29T06:12:02;101142.19;;;0.06;100.00
14232;BME280;7200;52.194;9.900;2023-01-29T06:14:27;101165.75;;;0.16;100.00
14232;BME280;7200;52.194;9.900;2023-01-29T06:16:52;101150.06;;;0.09;100.00
14232;BME280;7200;52.194;9.900;2023-01-29T06:19:18;101161.34;;;0.12;100.00
14232;BME280;7200;52.194;9.900;2023-01-29T06:21:44;101165.78;;;0.18;100.00
14232;BME280;7200;52.194;9.900;2023-01-29T06:24:10;101150.09;;;0.10;100.00
14232;BME280;7200;52.194;9.900;2023-01-29T06:26:35;101147.50;;;0.10;100.00
14232;BME280;7200;52.194;9.900;2023-01-29T06:29:00;101152.66;;;0.09;100.00
14232;BME280;7200;52.194;9.900;2023-01-29T06:31:25;101146.63;;;0.10;100.00
14232;BME280;7200;52.194;9.900;2023-01-29T06:33:51;101133.59;;;0.07;100.00
14232;BME280;7200;52.194;9.900;2023-01-29T06:36:16;101127.50;;;0.05;100.00
14232;BME280;7200;52.194;9.900;2023-01-29T06:38:41;101135.28;;;0.05;100.00
14232;BME280;7200;52.194;9.900;2023-01-29T06:41:11;101144.03;;;0.10;100.00
14232;BME280;7200;52.194;9.900;2023-01-29T06:43:37;101132.75;;;0.09;100.00
14232;BME280;7200;52.194;9.900;2023-01-29T06:46:03;101121.34;;;-0.01;100.00
14232;BME280;7200;52.194;9.900;2023-01-29T06:48:31;101146.53;;;0.05;100.00
14232;BME280;7200;52.194;9.900;2023-01-29T06:51:01;101147.50;;;0.10;100.00
14232;BME280;7200;52.194;9.900;2023-01-29T06:53:26;101151.81;;;0.10;100.00
14232;BME280;7200;52.194;9.900;2023-01-29T06:55:52;101148.28;;;0.06;100.00
14232;BME280;7200;52.194;9.900;2023-01-29T06:58:18;101142.19;;;0.04;100.00
14232;BME280;7200;52.194;9.900;2023-01-29T07:00:43;101143.13;;;0.08;100.00
14232;BME280;7200;52.194;9.900;2023-01-29T07:03:09;101145.72;;;0.08;100.00
14232;BME280;7200;52.194;9.900;2023-01-29T07:05:35;101131.78;;;0.03;100.00
14232;BME280;7200;52.194;9.900;2023-01-29T07:08:00;101159.59;;;0.10;100.00
14232;BME280;7200;52.194;9.900;2023-01-29T07:10:26;101156.03;;;0.05;100.00
14232;BME280;7200;52.194;9.900;2023-01-29T07:12:51;101153.50;;;0.08;100.00
14232;BME280;7200;52.194;9.900;2023-01-29T07:15:16;101149.97;;;0.06;100.00
14232;BME280;7200;52.194;9.900;2023-01-29T07:18:00;101162.09;;;0.05;100.00
14232;BME280;7200;52.194;9.900;2023-01-29T07:20:28;101166.41;;;0.05;100.00
14232;BME280;7200;52.194;9.900;2023-01-29T07:22:53;101188.16;;;0.13;100.00
14232;BME280;7200;52.194;9.900;2023-01-29T07:25:20;101176.94;;;0.12;100.00
14232;BME280;7200;52.194;9.900;2023-01-29T07:27:46;101171.66;;;0.09;100.00
14232;BME280;7200;52.194;9.900;2023-01-29T07:30:12;101150.78;;;0.00;100.00
14232;BME280;7200;52.194;9.900;2023-01-29T07:32:37;101169.88;;;0.05;100.00
14232;BME280;7200;52.194;9.900;2023-01-29T07:35:03;101157.66;;;-0.01;100.00
14232;BME280;7200;52.194;9.900;2023-01-29T07:37:28;101158.63;;;0.05;100.00
14232;BME280;7200;52.194;9.900;2023-01-29T07:39:53;101151.53;;;-0.04;100.00
14232;BME280;7200;52.194;9.900;2023-01-29T07:42:19;101151.50;;;-0.07;100.00
14232;BME280;7200;52.194;9.900;2023-01-29T07:44:44;101142.00;;;-0.07;100.00
14232;BME280;7200;52.194;9.900;2023-01-29T07:47:10;101155.97;;;0.00;100.00
14232;BME280;7200;52.194;9.900;2023-01-29T07:49:35;101153.38;;;0.02;100.00
14232;BME280;7200;52.194;9.900;2023-01-29T07:52:01;101162.19;;;0.11;100.00
14232;BME280;7200;52.194;9.900;2023-01-29T07:54:26;101149.91;;;0.01;100.00
14232;BME280;7200;52.194;9.900;2023-01-29T07:56:51;101155.13;;;0.03;100.00
14232;BME280;7200;52.194;9.900;2023-01-29T07:59:17;101158.69;;;0.08;100.00
14232;BME280;7200;52.194;9.900;2023-01-29T08:01:42;101143.91;;;0.04;100.00
14232;BME280;7200;52.194;9.900;2023-01-29T08:04:07;101133.53;;;0.02;100.00
14232;BME280;7200;52.194;9.900;2023-01-29T08:06:32;101139.59;;;0.04;100.00
14232;BME280;7200;52.194;9.900;2023-01-29T08:08:58;101137.97;;;0.11;100.00
14232;BME280;7200;52.194;9.900;2023-01-29T08:11:24;101130.25;;;0.14;100.00
14232;BME280;7200;52.194;9.900;2023-01-29T08:13:49;101135.47;;;0.17;100.00
14232;BME280;7200;52.194;9.900;2023-01-29T08:16:14;101150.28;;;0.21;100.00
14232;BME280;7200;52.194;9.900;2023-01-29T08:18:40;101156.44;;;0.28;100.00
14232;BME280;7200;52.194;9.900;2023-01-29T08:21:08;101150.31;;;0.24;100.00
14232;BME280;7200;52.194;9.900;2023-01-29T08:23:33;101175.63;;;0.36;100.00
14232;BME280;7200;52.194;9.900;2023-01-29T08:26:01;101186.06;;;0.41;100.00
14232;BME280;7200;52.194;9.900;2023-01-29T08:28:26;101161.72;;;0.34;100.00
14232;BME280;7200;52.194;9.900;2023-01-29T08:30:52;101167.88;;;0.39;100.00
14232;BME280;7200;52.194;9.900;2023-01-29T08:33:17;101159.13;;;0.34;100.00
14232;BME280;7200;52.194;9.900;2023-01-29T08:35:42;101169.56;;;0.37;100.00
14232;BME280;7200;52.194;9.900;2023-01-29T08:38:12;101175.63;;;0.36;100.00
14232;BME280;7200;52.194;9.900;2023-01-29T08:40:37;101180.16;;;0.48;100.00
14232;BME280;7200;52.194;9.900;2023-01-29T08:43:05;101176.59;;;0.43;100.00
14232;BME280;7200;52.194;9.900;2023-01-29T08:45:36;101171.38;;;0.41;100.00
14232;BME280;7200;52.194;9.900;2023-01-29T08:48:02;101167.91;;;0.41;100.00
14232;BME280;7200;52.194;9.900;2023-01-29T08:50:27;101186.13;;;0.45;100.00
14232;BME280;7200;52.194;9.900;2023-01-29T08:52:59;101164.38;;;0.37;100.00
14232;BME280;7200;52.194;9.900;2023-01-29T08:55:25;101186.13;;;0.45;100.00
14232;BME280;7200;52.194;9.900;2023-01-29T08:57:50;101183.53;;;0.45;100.00
14232;BME280;7200;52.194;9.900;2023-01-29T09:00:16;101172.25;;;0.43;100.00
14232;BME280;7200;52.194;9.900;2023-01-29T09:02:41;101195.03;;;0.58;100.00
14232;BME280;7200;52.194;9.900;2023-01-29T09:05:07;101184.53;;;0.52;100.00
14232;BME280;7200;52.194;9.900;2023-01-29T09:07:33;101180.94;;;0.45;100.00
14232;BME280;7200;52.194;9.900;2023-01-29T09:09:58;101182.69;;;0.45;100.00
14232;BME280;7200;52.194;9.900;2023-01-29T09:12:24;101166.16;;;0.39;100.00
14232;BME280;7200;52.194;9.900;2023-01-29T09:14:49;101159.28;;;0.42;100.00
14232;BME280;7200;52.194;9.900;2023-01-29T09:17:14;101174.97;;;0.51;100.00
14232;BME280;7200;52.194;9.900;2023-01-29T09:19:39;101167.06;;;0.43;100.00
14232;BME280;7200;52.194;9.900;2023-01-29T09:22:05;101156.59;;;0.37;100.00
14232;BME280;7200;52.194;9.900;2023-01-29T09:24:30;101171.47;;;0.46;100.00
14232;BME280;7200;52.194;9.900;2023-01-29T09:26:56;101164.50;;;0.45;100.00
14232;BME280;7200;52.194;9.900;2023-01-29T09:29:22;101163.75;;;0.50;100.00
14232;BME280;7200;52.194;9.900;2023-01-29T09:31:47;101169.78;;;0.51;100.00
14232;BME280;7200;52.194;9.900;2023-01-29T09:34:12;101169.03;;;0.55;100.00
14232;BME280;7200;52.194;9.900;2023-01-29T09:36:38;101175.19;;;0.63;100.00
14232;BME280;7200;52.194;9.900;2023-01-29T09:39:03;101164.75;;;0.58;100.00
14232;BME280;7200;52.194;9.900;2023-01-29T09:47:28;101162.31;;;0.69;100.00
14232;BME280;7200;52.194;9.900;2023-01-29T09:52:29;101163.31;;;0.77;100.00
14232;BME280;7200;52.194;9.900;2023-01-29T09:55:24;101162.50;;;0.82;100.00
14232;BME280;7200;52.194;9.900;2023-01-29T09:57:51;101150.31;;;0.79;100.00
14232;BME280;7200;52.194;9.900;2023-01-29T10:03:01;101137.31;;;0.76;100.00
14232;BME280;7200;52.194;9.900;2023-01-29T10:05:48;101157.47;;;0.91;100.00
14232;BME280;7200;52.194;9.900;2023-01-29T10:11:07;101124.31;;;0.74;100.00
14232;BME280;7200;52.194;9.900;2023-01-29T10:13:52;101140.09;;;0.88;100.00
14232;BME280;7200;52.194;9.900;2023-01-29T10:24:36;101147.44;;;1.17;100.00
14232;BME280;7200;52.194;9.900;2023-01-29T10:27:10;101114.34;;;1.07;100.00
14232;BME280;7200;52.194;9.900;2023-01-29T10:29:40;101107.41;;;1.04;100.00
14232;BME280;7200;52.194;9.900;2023-01-29T10:32:07;101140.66;;;1.28;100.00
14232;BME280;7200;52.194;9.900;2023-01-29T10:34:40;101125.00;;;1.25;100.00
14232;BME280;7200;52.194;9.900;2023-01-29T10:37:15;101131.19;;;1.35;100.00
14232;BME280;7200;52.194;9.900;2023-01-29T10:39:42;101095.47;;;1.20;100.00
14232;BME280;7200;52.194;9.900;2023-01-29T10:47:51;101108.56;;;1.28;100.00
14232;BME280;7200;52.194;9.900;2023-01-29T10:50:46;101100.75;;;1.28;100.00
14232;BME280;7200;52.194;9.900;2023-01-29T11:00:53;101060.88;;;1.26;100.00
14232;BME280;7200;52.194;9.900;2023-01-29T11:03:24;101054.78;;;1.22;100.00
14232;BME280;7200;52.194;9.900;2023-01-29T11:11:40;101052.38;;;1.38;100.00
14232;BME280;7200;52.194;9.900;2023-01-29T11:14:18;101018.47;;;1.27;100.00
14232;BME280;7200;52.194;9.900;2023-01-29T11:16:47;101019.41;;;1.36;100.00
14232;BME280;7200;52.194;9.900;2023-01-29T11:19:13;101022.06;;;1.43;100.00
14232;BME280;7200;52.194;9.900;2023-01-29T11:21:51;101015.19;;;1.46;100.00
14232;BME280;7200;52.194;9.900;2023-01-29T11:24:17;101007.38;;;1.43;100.00
14232;BME280;7200;52.194;9.900;2023-01-29T11:26:45;100989.97;;;1.36;100.00
14232;BME280;7200;52.194;9.900;2023-01-29T11:29:44;100980.47;;;1.41;100.00
14232;BME280;7200;52.194;9.900;2023-01-29T11:34:56;100992.81;;;1.64;100.00
14232;BME280;7200;52.194;9.900;2023-01-29T11:37:22;100959.81;;;1.57;100.00
14232;BME280;7200;52.194;9.900;2023-01-29T11:39:48;100950.25;;;1.51;100.00
14232;BME280;7200;52.194;9.900;2023-01-29T11:42:21;100963.31;;;1.59;100.00
14232;BME280;7200;52.194;9.900;2023-01-29T11:44:47;100938.94;;;1.47;100.00
14232;BME280;7200;52.194;9.900;2023-01-29T11:49:56;100952.81;;;1.52;100.00
14232;BME280;7200;52.194;9.900;2023-01-29T11:52:25;100952.88;;;1.55;100.00
14232;BME280;7200;52.194;9.900;2023-01-29T11:57:26;100962.53;;;1.70;100.00
14232;BME280;7200;52.194;9.900;2023-01-29T11:59:54;100923.41;;;1.58;100.00
14232;BME280;7200;52.194;9.900;2023-01-29T12:02:34;100918.25;;;1.63;100.00
14232;BME280;7200;52.194;9.900;2023-01-29T12:05:05;100933.06;;;1.70;100.00
14232;BME280;7200;52.194;9.900;2023-01-29T12:07:31;100913.06;;;1.64;100.00
14232;BME280;7200;52.194;9.900;2023-01-29T12:09:58;100900.91;;;1.62;100.00
14232;BME280;7200;52.194;9.900;2023-01-29T12:12:42;100919.19;;;1.72;100.00
14232;BME280;7200;52.194;9.900;2023-01-29T12:17:44;100901.91;;;1.78;100.00
14232;BME280;7200;52.194;9.900;2023-01-29T12:20:18;100888.91;;;1.79;100.00
14232;BME280;7200;52.194;9.900;2023-01-29T12:22:52;100857.63;;;1.68;100.00
14232;BME280;7200;52.194;9.900;2023-01-29T12:25:35;100868.09;;;1.81;100.00
14232;BME280;7200;52.194;9.900;2023-01-29T12:37:13;100863.06;;;2.10;100.00
14232;BME280;7200;52.194;9.900;2023-01-29T12:39:40;100823.94;;;1.93;100.00
14232;BME280;7200;52.194;9.900;2023-01-29T12:42:14;100827.38;;;1.87;100.00
14232;BME280;7200;52.194;9.900;2023-01-29T12:44:53;100833.47;;;1.89;100.00
14232;BME280;7200;52.194;9.900;2023-01-29T12:47:34;100854.31;;;1.97;100.00
14232;BME280;7200;52.194;9.900;2023-01-29T12:50:05;100834.31;;;1.90;100.00
14232;BME280;7200;52.194;9.900;2023-01-29T12:52:36;100838.63;;;1.86;100.00
14232;BME280;7200;52.194;9.900;2023-01-29T12:55:18;100836.88;;;1.82;100.00
14232;BME280;7200;52.194;9.900;2023-01-29T13:00:24;100829.91;;;1.73;100.00
14232;BME280;7200;52.194;9.900;2023-01-29T13:02:58;100825.53;;;1.69;100.00
14232;BME280;7200;52.194;9.900;2023-01-29T13:08:26;100836.81;;;1.68;100.00
14232;BME280;7200;52.194;9.900;2023-01-29T13:10:53;100843.78;;;1.74;100.00
14232;BME280;7200;52.194;9.900;2023-01-29T13:13:29;100831.56;;;1.65;100.00
14232;BME280;7200;52.194;9.900;2023-01-29T13:15:56;100826.38;;;1.67;100.00
14232;BME280;7200;52.194;9.900;2023-01-29T13:21:24;100840.31;;;1.73;100.00
14232;BME280;7200;52.194;9.900;2023-01-29T13:23:59;100829.88;;;1.69;100.00
14232;BME280;7200;52.194;9.900;2023-01-29T13:26:27;100825.56;;;1.72;100.00
14232;BME280;7200;52.194;9.900;2023-01-29T13:28:53;100828.13;;;1.71;100.00
14232;BME280;7200;52.194;9.900;2023-01-29T13:31:31;100817.75;;;1.71;100.00
14232;BME280;7200;52.194;9.900;2023-01-29T13:36:30;100814.31;;;1.77;100.00
14232;BME280;7200;52.194;9.900;2023-01-29T13:41:39;100807.38;;;1.75;100.00
14232;BME280;7200;52.194;9.900;2023-01-29T13:44:16;100800.47;;;1.79;100.00
14232;BME280;7200;52.194;9.900;2023-01-29T13:46:52;100796.13;;;1.80;100.00
14232;BME280;7200;52.194;9.900;2023-01-29T13:49:37;100808.28;;;1.84;100.00
14232;BME280;7200;52.194;9.900;2023-01-29T13:52:37;100790.06;;;1.79;100.00
14232;BME280;7200;52.194;9.900;2023-01-29T13:55:08;100772.66;;;1.72;100.00
14232;BME280;7200;52.194;9.900;2023-01-29T14:02:45;100772.69;;;1.78;100.00
14232;BME280;7200;52.194;9.900;2023-01-29T14:07:58;100776.19;;;1.88;100.00
14232;BME280;7200;52.194;9.900;2023-01-29T14:10:25;100753.66;;;1.87;100.00
14232;BME280;7200;52.194;9.900;2023-01-29T14:15:43;100754.53;;;1.92;100.00
14232;BME280;7200;52.194;9.900;2023-01-29T14:18:17;100741.50;;;1.86;100.00
14232;BME280;7200;52.194;9.900;2023-01-29T14:23:39;100748.44;;;1.88;100.00
14232;BME280;7200;52.194;9.900;2023-01-29T14:28:52;100750.19;;;1.85;100.00
14232;BME280;7200;52.194;9.900;2023-01-29T14:31:45;100751.91;;;1.86;100.00
14232;BME280;7200;52.194;9.900;2023-01-29T14:34:22;100764.06;;;1.90;100.00
14232;BME280;7200;52.194;9.900;2023-01-29T14:36:51;100750.16;;;1.86;100.00
14232;BME280;7200;52.194;9.900;2023-01-29T14:39:33;100744.97;;;1.83;100.00
14232;BME280;7200;52.194;9.900;2023-01-29T14:42:00;100730.19;;;1.73;100.00
14232;BME280;7200;52.194;9.900;2023-01-29T14:47:21;100734.50;;;1.72;100.00
14232;BME280;7200;52.194;9.900;2023-01-29T14:52:53;100757.09;;;1.78;100.00
14232;BME280;7200;52.194;9.900;2023-01-29T14:55:29;100756.22;;;1.76;100.00
14232;BME280;7200;52.194;9.900;2023-01-29T14:57:56;100766.66;;;1.79;100.00
14232;BME280;7200;52.194;9.900;2023-01-29T15:00:28;100748.38;;;1.67;100.00
14232;BME280;7200;52.194;9.900;2023-01-29T15:02:54;100748.34;;;1.65;100.00
14232;BME280;7200;52.194;9.900;2023-01-29T15:05:29;100750.97;;;1.68;100.00
14232;BME280;7200;52.194;9.900;2023-01-29T15:08:05;100748.38;;;1.67;100.00
14232;BME280;7200;52.194;9.900;2023-01-29T15:10:39;100771.81;;;1.74;100.00
14232;BME280;7200;52.194;9.900;2023-01-29T15:15:43;100756.97;;;1.60;100.00
14232;BME280;7200;52.194;9.900;2023-01-29T15:18:19;100758.69;;;1.56;100.00
14232;BME280;7200;52.194;9.900;2023-01-29T15:21:00;100763.03;;;1.54;100.00
14232;BME280;7200;52.194;9.900;2023-01-29T15:23:31;100764.78;;;1.57;100.00
14232;BME280;7200;52.194;9.900;2023-01-29T15:26:02;100793.38;;;1.58;100.00
14232;BME280;7200;52.194;9.900;2023-01-29T15:28:29;100795.97;;;1.58;100.00
14232;BME280;7200;52.194;9.900;2023-01-29T15:31:00;100802.91;;;1.56;100.00